This is the latest recevied weather packets stored in our database for station/object WD8EHT. If no packets are shown the sender has not sent any weather packets the latest 1 day(s).
| Time | Temp. | Humidity | Pressure | Rain* | Wind** | Luminosity | Snow |
|---|---|---|---|---|---|---|---|
| 1778097901 | 11.11° C | 42% | 1010.8 hPa | 0 mm | - | 170 W/m² | - |
| 1778097597 | 12.22° C | 41% | 1011.1 hPa | 0 mm | - | 215 W/m² | - |
| 1778097295 | 12.22° C | 42% | 1010.9 hPa | 0 mm | - | 311 W/m² | - |
| 1778096385 | 11.67° C | 40% | 1010.8 hPa | 0 mm | - | 240 W/m² | - |
| 1778095476 | 11.67° C | 42% | 1010.9 hPa | 0 mm | - | 200 W/m² | - |
| 1778094869 | 11.67° C | 42% | 1011.2 hPa | 0 mm | - | 155 W/m² | - |
| 1778092748 | 11.67° C | 45% | 1011.3 hPa | 0 mm | - | 194 W/m² | - |
| 1778090322 | 12.22° C | 45% | 1011.1 hPa | 0 mm | - | 333 W/m² | - |
| 1778089111 | 11.67° C | 47% | 1011.5 hPa | 0 mm | - | 325 W/m² | - |
| 1778086989 | 11.11° C | 44% | 1011.6 hPa | 0 mm | - | 900 W/m² | - |
| 1778086688 | 11.67° C | 43% | 1011.6 hPa | 0 mm | - | 495 W/m² | - |
| 1778086385 | 11.11° C | 44% | 1011.7 hPa | 0 mm | - | 603 W/m² | - |
| 1778081615 | 10° C | 52% | 1011.6 hPa | 0 mm | - | 294 W/m² | - |
| 1778081312 | 10.56° C | 50% | 1011.5 hPa | 0 mm | - | 390 W/m² | - |
| 1778080404 | 10° C | 58% | 1011.3 hPa | 0 mm | - | 271 W/m² | - |
| 1778079798 | 10° C | 50% | 1011.5 hPa | 0 mm | - | 614 W/m² | - |
| 1778079495 | 9.44° C | 54% | 1011.6 hPa | 0 mm | - | 511 W/m² | - |
| 1778078889 | 10° C | 53% | 1011.5 hPa | 0 mm | - | 665 W/m² | - |
| 1778073741 | 8.33° C | 58% | 1010.8 hPa | 0 mm | - | 410 W/m² | - |
| 1778073439 | 8.33° C | 58% | 1010.6 hPa | 0 mm | - | 416 W/m² | - |
| 1778071622 | 8.33° C | 58% | 1010.4 hPa | 0 mm | - | 341 W/m² | - |
| 1778071320 | 7.78° C | 59% | 1010.3 hPa | 0 mm | - | 324 W/m² | - |
| 1778071017 | 7.78° C | 59% | 1010.1 hPa | 0 mm | - | 281 W/m² | - |
| 1778070412 | 7.22° C | 60% | 1010 hPa | 0 mm | - | 234 W/m² | - |
| 1778069807 | 6.67° C | 62% | 1009.7 hPa | 0 mm | - | 210 W/m² | - |
* Rain latest hour (hover to see other rain measurements)
** Current wind speed in m/s (hover to see current wind gust speed)